sensor_id;sensor_type;location;lat;lon;timestamp;P1;durP1;ratioP1;P2;durP2;ratioP2
57565;SDS011;63999;43.882;-0.310;2023-04-25T00:00:58;1.65;;;0.30;;
57565;SDS011;63999;43.882;-0.310;2023-04-25T00:03:24;1.35;;;0.40;;
57565;SDS011;63999;43.882;-0.310;2023-04-25T00:05:50;1.50;;;0.40;;
57565;SDS011;63999;43.882;-0.310;2023-04-25T00:08:17;0.30;;;0.30;;
57565;SDS011;63999;43.882;-0.310;2023-04-25T00:10:45;1.05;;;0.20;;
57565;SDS011;63999;43.882;-0.310;2023-04-25T00:13:11;1.48;;;0.30;;
57565;SDS011;63999;43.882;-0.310;2023-04-25T00:15:38;0.47;;;0.30;;
57565;SDS011;63999;43.882;-0.310;2023-04-25T00:18:09;1.42;;;0.20;;
57565;SDS011;63999;43.882;-0.310;2023-04-25T00:20:36;1.42;;;0.20;;
57565;SDS011;63999;43.882;-0.310;2023-04-25T00:23:02;0.50;;;0.20;;
57565;SDS011;63999;43.882;-0.310;2023-04-25T00:25:31;0.93;;;0.30;;
57565;SDS011;63999;43.882;-0.310;2023-04-25T00:27:57;0.38;;;0.30;;
57565;SDS011;63999;43.882;-0.310;2023-04-25T00:30:26;0.45;;;0.22;;
57565;SDS011;63999;43.882;-0.310;2023-04-25T00:32:51;0.40;;;0.30;;
57565;SDS011;63999;43.882;-0.310;2023-04-25T00:35:20;0.30;;;0.30;;
57565;SDS011;63999;43.882;-0.310;2023-04-25T00:37:49;0.88;;;0.30;;
57565;SDS011;63999;43.882;-0.310;2023-04-25T00:40:15;2.30;;;0.30;;
57565;SDS011;63999;43.882;-0.310;2023-04-25T00:42:41;0.55;;;0.30;;
57565;SDS011;63999;43.882;-0.310;2023-04-25T00:45:07;0.20;;;0.20;;
57565;SDS011;63999;43.882;-0.310;2023-04-25T00:47:37;1.13;;;0.25;;
57565;SDS011;63999;43.882;-0.310;2023-04-25T00:50:03;0.80;;;0.30;;
57565;SDS011;63999;43.882;-0.310;2023-04-25T00:52:34;0.47;;;0.30;;
57565;SDS011;63999;43.882;-0.310;2023-04-25T00:55:00;1.33;;;0.45;;
57565;SDS011;63999;43.882;-0.310;2023-04-25T00:57:32;0.73;;;0.38;;
57565;SDS011;63999;43.882;-0.310;2023-04-25T00:59:58;0.43;;;0.22;;
57565;SDS011;63999;43.882;-0.310;2023-04-25T01:02:28;0.85;;;0.47;;
57565;SDS011;63999;43.882;-0.310;2023-04-25T01:04:55;1.58;;;0.20;;
57565;SDS011;63999;43.882;-0.310;2023-04-25T01:07:21;1.00;;;0.30;;
57565;SDS011;63999;43.882;-0.310;2023-04-25T01:09:47;0.40;;;0.30;;
57565;SDS011;63999;43.882;-0.310;2023-04-25T01:12:13;2.00;;;0.50;;
57565;SDS011;63999;43.882;-0.310;2023-04-25T01:14:39;0.98;;;0.40;;
57565;SDS011;63999;43.882;-0.310;2023-04-25T01:17:09;1.15;;;0.45;;
57565;SDS011;63999;43.882;-0.310;2023-04-25T01:19:35;2.17;;;0.40;;
57565;SDS011;63999;43.882;-0.310;2023-04-25T01:22:01;0.75;;;0.43;;
57565;SDS011;63999;43.882;-0.310;2023-04-25T01:24:29;2.78;;;0.60;;
57565;SDS011;63999;43.882;-0.310;2023-04-25T01:26:56;0.82;;;0.45;;
57565;SDS011;63999;43.882;-0.310;2023-04-25T01:29:23;1.88;;;0.60;;
57565;SDS011;63999;43.882;-0.310;2023-04-25T01:31:51;0.73;;;0.40;;
57565;SDS011;63999;43.882;-0.310;2023-04-25T01:34:17;1.50;;;0.45;;
57565;SDS011;63999;43.882;-0.310;2023-04-25T01:36:44;1.60;;;0.45;;
57565;SDS011;63999;43.882;-0.310;2023-04-25T01:39:11;2.38;;;0.60;;
57565;SDS011;63999;43.882;-0.310;2023-04-25T01:41:37;2.00;;;0.40;;
57565;SDS011;63999;43.882;-0.310;2023-04-25T01:44:03;1.63;;;0.60;;
57565;SDS011;63999;43.882;-0.310;2023-04-25T01:46:33;4.88;;;0.68;;
57565;SDS011;63999;43.882;-0.310;2023-04-25T01:48:59;1.60;;;0.50;;
57565;SDS011;63999;43.882;-0.310;2023-04-25T01:51:28;3.85;;;0.65;;
57565;SDS011;63999;43.882;-0.310;2023-04-25T01:53:54;0.80;;;0.50;;
57565;SDS011;63999;43.882;-0.310;2023-04-25T01:56:21;2.40;;;0.93;;
57565;SDS011;63999;43.882;-0.310;2023-04-25T01:58:47;0.68;;;0.50;;
57565;SDS011;63999;43.882;-0.310;2023-04-25T02:01:16;2.53;;;0.70;;
57565;SDS011;63999;43.882;-0.310;2023-04-25T02:03:42;1.27;;;0.63;;
57565;SDS011;63999;43.882;-0.310;2023-04-25T02:06:09;3.75;;;0.60;;
57565;SDS011;63999;43.882;-0.310;2023-04-25T02:08:37;2.03;;;0.60;;
57565;SDS011;63999;43.882;-0.310;2023-04-25T02:11:03;0.77;;;0.57;;
57565;SDS011;63999;43.882;-0.310;2023-04-25T02:13:30;2.10;;;0.60;;
57565;SDS011;63999;43.882;-0.310;2023-04-25T02:15:56;2.67;;;0.60;;
57565;SDS011;63999;43.882;-0.310;2023-04-25T02:18:22;0.60;;;0.60;;
57565;SDS011;63999;43.882;-0.310;2023-04-25T02:20:48;1.05;;;0.63;;
57565;SDS011;63999;43.882;-0.310;2023-04-25T02:23:14;0.50;;;0.50;;
57565;SDS011;63999;43.882;-0.310;2023-04-25T02:25:44;1.15;;;0.60;;
57565;SDS011;63999;43.882;-0.310;2023-04-25T02:28:10;1.88;;;0.40;;
57565;SDS011;63999;43.882;-0.310;2023-04-25T02:30:36;1.40;;;0.60;;
57565;SDS011;63999;43.882;-0.310;2023-04-25T02:33:06;1.17;;;0.60;;
57565;SDS011;63999;43.882;-0.310;2023-04-25T02:35:32;2.03;;;0.55;;
57565;SDS011;63999;43.882;-0.310;2023-04-25T02:37:57;1.67;;;0.50;;
57565;SDS011;63999;43.882;-0.310;2023-04-25T02:40:23;1.15;;;0.70;;
57565;SDS011;63999;43.882;-0.310;2023-04-25T02:42:49;1.38;;;0.60;;
57565;SDS011;63999;43.882;-0.310;2023-04-25T02:45:16;1.15;;;0.55;;
57565;SDS011;63999;43.882;-0.310;2023-04-25T02:47:47;1.63;;;0.60;;
57565;SDS011;63999;43.882;-0.310;2023-04-25T02:50:13;1.20;;;0.60;;
57565;SDS011;63999;43.882;-0.310;2023-04-25T02:52:39;1.50;;;0.60;;
57565;SDS011;63999;43.882;-0.310;2023-04-25T02:55:05;1.45;;;0.60;;
57565;SDS011;63999;43.882;-0.310;2023-04-25T02:57:31;1.75;;;0.65;;
57565;SDS011;63999;43.882;-0.310;2023-04-25T02:59:57;0.60;;;0.50;;
57565;SDS011;63999;43.882;-0.310;2023-04-25T03:02:26;1.38;;;0.63;;
57565;SDS011;63999;43.882;-0.310;2023-04-25T03:04:51;1.25;;;0.88;;
57565;SDS011;63999;43.882;-0.310;2023-04-25T03:07:20;4.35;;;0.93;;
57565;SDS011;63999;43.882;-0.310;2023-04-25T03:09:46;2.45;;;1.00;;
57565;SDS011;63999;43.882;-0.310;2023-04-25T03:12:12;1.33;;;0.80;;
57565;SDS011;63999;43.882;-0.310;2023-04-25T03:14:38;2.15;;;0.80;;
57565;SDS011;63999;43.882;-0.310;2023-04-25T03:17:04;1.63;;;0.90;;
57565;SDS011;63999;43.882;-0.310;2023-04-25T03:19:30;1.88;;;0.80;;
57565;SDS011;63999;43.882;-0.310;2023-04-25T03:21:56;1.33;;;1.00;;
57565;SDS011;63999;43.882;-0.310;2023-04-25T03:24:22;2.33;;;0.80;;
57565;SDS011;63999;43.882;-0.310;2023-04-25T03:26:48;2.50;;;0.80;;
57565;SDS011;63999;43.882;-0.310;2023-04-25T03:29:14;1.92;;;0.70;;
57565;SDS011;63999;43.882;-0.310;2023-04-25T03:31:43;1.67;;;0.80;;
57565;SDS011;63999;43.882;-0.310;2023-04-25T03:34:09;2.03;;;0.80;;
57565;SDS011;63999;43.882;-0.310;2023-04-25T03:36:35;1.27;;;0.80;;
57565;SDS011;63999;43.882;-0.310;2023-04-25T03:39:01;3.03;;;0.80;;
57565;SDS011;63999;43.882;-0.310;2023-04-25T03:41:27;1.83;;;0.68;;
57565;SDS011;63999;43.882;-0.310;2023-04-25T03:43:54;4.07;;;0.82;;
57565;SDS011;63999;43.882;-0.310;2023-04-25T03:46:23;1.92;;;0.80;;
57565;SDS011;63999;43.882;-0.310;2023-04-25T03:48:49;2.13;;;0.70;;
57565;SDS011;63999;43.882;-0.310;2023-04-25T03:51:15;1.10;;;0.68;;
57565;SDS011;63999;43.882;-0.310;2023-04-25T03:53:44;4.80;;;0.90;;
57565;SDS011;63999;43.882;-0.310;2023-04-25T03:56:10;0.60;;;0.60;;
57565;SDS011;63999;43.882;-0.310;2023-04-25T03:58:36;1.75;;;0.80;;
57565;SDS011;63999;43.882;-0.310;2023-04-25T04:01:02;2.70;;;0.70;;
57565;SDS011;63999;43.882;-0.310;2023-04-25T04:03:32;1.02;;;0.60;;
57565;SDS011;63999;43.882;-0.310;2023-04-25T04:06:01;2.38;;;0.60;;
57565;SDS011;63999;43.882;-0.310;2023-04-25T04:08:31;1.02;;;0.70;;
57565;SDS011;63999;43.882;-0.310;2023-04-25T04:10:57;8.57;;;0.85;;
57565;SDS011;63999;43.882;-0.310;2023-04-25T04:13:27;12.85;;;1.00;;
57565;SDS011;63999;43.882;-0.310;2023-04-25T04:15:54;2.03;;;0.70;;
57565;SDS011;63999;43.882;-0.310;2023-04-25T04:18:20;1.92;;;0.60;;
57565;SDS011;63999;43.882;-0.310;2023-04-25T04:20:47;1.50;;;0.70;;
57565;SDS011;63999;43.882;-0.310;2023-04-25T04:23:19;7.47;;;1.05;;
57565;SDS011;63999;43.882;-0.310;2023-04-25T04:25:49;2.22;;;0.70;;
57565;SDS011;63999;43.882;-0.310;2023-04-25T04:28:15;1.55;;;0.70;;
57565;SDS011;63999;43.882;-0.310;2023-04-25T04:30:41;2.97;;;0.70;;
57565;SDS011;63999;43.882;-0.310;2023-04-25T04:33:11;1.75;;;0.60;;
57565;SDS011;63999;43.882;-0.310;2023-04-25T04:35:37;1.23;;;0.70;;
57565;SDS011;63999;43.882;-0.310;2023-04-25T04:38:03;1.77;;;0.65;;
57565;SDS011;63999;43.882;-0.310;2023-04-25T04:40:32;0.77;;;0.60;;
57565;SDS011;63999;43.882;-0.310;2023-04-25T04:42:58;1.63;;;0.70;;
57565;SDS011;63999;43.882;-0.310;2023-04-25T04:45:30;1.40;;;0.70;;
57565;SDS011;63999;43.882;-0.310;2023-04-25T04:50:22;0.80;;;0.65;;
57565;SDS011;63999;43.882;-0.310;2023-04-25T04:52:48;0.45;;;0.40;;
57565;SDS011;63999;43.882;-0.310;2023-04-25T04:55:14;1.05;;;0.70;;
57565;SDS011;63999;43.882;-0.310;2023-04-25T04:57:40;2.25;;;0.70;;
57565;SDS011;63999;43.882;-0.310;2023-04-25T05:00:07;0.80;;;0.60;;
57565;SDS011;63999;43.882;-0.310;2023-04-25T05:02:36;0.52;;;0.52;;
57565;SDS011;63999;43.882;-0.310;2023-04-25T05:05:04;1.17;;;0.70;;
57565;SDS011;63999;43.882;-0.310;2023-04-25T05:07:33;1.17;;;0.75;;
57565;SDS011;63999;43.882;-0.310;2023-04-25T05:10:06;1.15;;;0.70;;
57565;SDS011;63999;43.882;-0.310;2023-04-25T05:12:36;1.70;;;0.60;;
57565;SDS011;63999;43.882;-0.310;2023-04-25T05:15:05;2.40;;;0.82;;
57565;SDS011;63999;43.882;-0.310;2023-04-25T05:17:31;3.13;;;0.80;;
57565;SDS011;63999;43.882;-0.310;2023-04-25T05:20:00;1.27;;;0.77;;
57565;SDS011;63999;43.882;-0.310;2023-04-25T05:22:31;1.70;;;0.70;;
57565;SDS011;63999;43.882;-0.310;2023-04-25T05:24:57;0.82;;;0.80;;
57565;SDS011;63999;43.882;-0.310;2023-04-25T05:27:23;0.60;;;0.60;;
57565;SDS011;63999;43.882;-0.310;2023-04-25T05:29:49;2.25;;;0.80;;
57565;SDS011;63999;43.882;-0.310;2023-04-25T05:32:16;1.50;;;0.57;;
57565;SDS011;63999;43.882;-0.310;2023-04-25T05:34:45;1.92;;;0.63;;
57565;SDS011;63999;43.882;-0.310;2023-04-25T05:37:11;1.27;;;0.70;;
57565;SDS011;63999;43.882;-0.310;2023-04-25T05:39:37;0.80;;;0.70;;
57565;SDS011;63999;43.882;-0.310;2023-04-25T05:42:05;1.25;;;0.70;;
57565;SDS011;63999;43.882;-0.310;2023-04-25T05:44:37;0.50;;;0.50;;
57565;SDS011;63999;43.882;-0.310;2023-04-25T05:47:06;0.60;;;0.60;;
57565;SDS011;63999;43.882;-0.310;2023-04-25T05:49:38;1.55;;;0.80;;
57565;SDS011;63999;43.882;-0.310;2023-04-25T05:52:04;1.20;;;0.65;;
57565;SDS011;63999;43.882;-0.310;2023-04-25T05:54:34;2.20;;;0.90;;
57565;SDS011;63999;43.882;-0.310;2023-04-25T05:57:00;0.75;;;0.63;;
57565;SDS011;63999;43.882;-0.310;2023-04-25T05:59:27;0.95;;;0.70;;
57565;SDS011;63999;43.882;-0.310;2023-04-25T06:01:54;0.35;;;0.35;;
57565;SDS011;63999;43.882;-0.310;2023-04-25T06:04:20;0.88;;;0.70;;
57565;SDS011;63999;43.882;-0.310;2023-04-25T06:06:52;1.40;;;0.63;;
57565;SDS011;63999;43.882;-0.310;2023-04-25T06:09:20;1.15;;;0.40;;
57565;SDS011;63999;43.882;-0.310;2023-04-25T06:11:46;0.93;;;0.60;;
57565;SDS011;63999;43.882;-0.310;2023-04-25T06:14:12;1.55;;;0.60;;
57565;SDS011;63999;43.882;-0.310;2023-04-25T06:16:38;1.77;;;0.60;;
57565;SDS011;63999;43.882;-0.310;2023-04-25T06:19:04;0.50;;;0.50;;
57565;SDS011;63999;43.882;-0.310;2023-04-25T06:21:30;1.70;;;0.60;;
57565;SDS011;63999;43.882;-0.310;2023-04-25T06:23:56;1.00;;;0.50;;
57565;SDS011;63999;43.882;-0.310;2023-04-25T06:26:25;0.68;;;0.50;;
57565;SDS011;63999;43.882;-0.310;2023-04-25T06:28:51;1.90;;;0.50;;
57565;SDS011;63999;43.882;-0.310;2023-04-25T06:31:20;1.98;;;0.50;;
57565;SDS011;63999;43.882;-0.310;2023-04-25T06:33:48;1.48;;;0.40;;
57565;SDS011;63999;43.882;-0.310;2023-04-25T06:36:20;1.48;;;0.60;;
57565;SDS011;63999;43.882;-0.310;2023-04-25T06:38:50;0.35;;;0.35;;
57565;SDS011;63999;43.882;-0.310;2023-04-25T06:41:17;4.57;;;0.50;;
57565;SDS011;63999;43.882;-0.310;2023-04-25T06:43:44;0.60;;;0.40;;
57565;SDS011;63999;43.882;-0.310;2023-04-25T06:46:10;0.63;;;0.50;;
57565;SDS011;63999;43.882;-0.310;2023-04-25T06:48:39;0.60;;;0.40;;
57565;SDS011;63999;43.882;-0.310;2023-04-25T06:51:05;1.98;;;0.50;;
57565;SDS011;63999;43.882;-0.310;2023-04-25T06:53:31;2.03;;;0.50;;
57565;SDS011;63999;43.882;-0.310;2023-04-25T06:55:57;0.52;;;0.40;;
57565;SDS011;63999;43.882;-0.310;2023-04-25T06:58:23;1.88;;;0.50;;
57565;SDS011;63999;43.882;-0.310;2023-04-25T07:00:52;2.55;;;0.60;;
57565;SDS011;63999;43.882;-0.310;2023-04-25T07:03:21;1.70;;;0.43;;
57565;SDS011;63999;43.882;-0.310;2023-04-25T07:05:50;0.90;;;0.70;;
57565;SDS011;63999;43.882;-0.310;2023-04-25T07:08:16;2.55;;;0.60;;
57565;SDS011;63999;43.882;-0.310;2023-04-25T07:10:42;1.00;;;0.43;;
57565;SDS011;63999;43.882;-0.310;2023-04-25T07:13:08;0.43;;;0.40;;
57565;SDS011;63999;43.882;-0.310;2023-04-25T07:15:37;0.60;;;0.60;;
57565;SDS011;63999;43.882;-0.310;2023-04-25T07:18:10;0.75;;;0.60;;
57565;SDS011;63999;43.882;-0.310;2023-04-25T07:20:36;1.42;;;0.55;;
57565;SDS011;63999;43.882;-0.310;2023-04-25T07:23:02;2.00;;;0.90;;
57565;SDS011;63999;43.882;-0.310;2023-04-25T07:25:31;0.80;;;0.70;;
57565;SDS011;63999;43.882;-0.310;2023-04-25T07:28:00;0.90;;;0.70;;
57565;SDS011;63999;43.882;-0.310;2023-04-25T07:30:26;1.63;;;0.70;;
57565;SDS011;63999;43.882;-0.310;2023-04-25T07:32:52;0.90;;;0.80;;
57565;SDS011;63999;43.882;-0.310;2023-04-25T07:35:18;1.15;;;0.77;;
57565;SDS011;63999;43.882;-0.310;2023-04-25T07:37:44;1.88;;;1.10;;
57565;SDS011;63999;43.882;-0.310;2023-04-25T07:40:13;2.78;;;0.80;;
57565;SDS011;63999;43.882;-0.310;2023-04-25T07:42:41;2.22;;;1.77;;
57565;SDS011;63999;43.882;-0.310;2023-04-25T07:45:10;0.68;;;0.63;;
57565;SDS011;63999;43.882;-0.310;2023-04-25T07:47:39;0.80;;;0.52;;
57565;SDS011;63999;43.882;-0.310;2023-04-25T07:50:14;1.85;;;0.50;;
57565;SDS011;63999;43.882;-0.310;2023-04-25T07:52:40;0.30;;;0.28;;
57565;SDS011;63999;43.882;-0.310;2023-04-25T07:55:06;1.42;;;0.63;;
57565;SDS011;63999;43.882;-0.310;2023-04-25T07:57:33;1.58;;;0.50;;
57565;SDS011;63999;43.882;-0.310;2023-04-25T07:59:59;1.95;;;0.40;;
57565;SDS011;63999;43.882;-0.310;2023-04-25T08:02:25;0.70;;;0.40;;
57565;SDS011;63999;43.882;-0.310;2023-04-25T08:04:54;0.28;;;0.20;;
57565;SDS011;63999;43.882;-0.310;2023-04-25T08:07:20;0.10;;;0.10;;
57565;SDS011;63999;43.882;-0.310;2023-04-25T08:09:46;0.10;;;0.10;;
57565;SDS011;63999;43.882;-0.310;2023-04-25T08:12:12;1.85;;;0.30;;
57565;SDS011;63999;43.882;-0.310;2023-04-25T08:14:40;0.85;;;0.15;;
57565;SDS011;63999;43.882;-0.310;2023-04-25T08:17:09;0.38;;;0.17;;
57565;SDS011;63999;43.882;-0.310;2023-04-25T08:19:35;1.05;;;0.20;;
57565;SDS011;63999;43.882;-0.310;2023-04-25T08:22:01;0.88;;;0.10;;
57565;SDS011;63999;43.882;-0.310;2023-04-25T08:24:30;0.30;;;0.10;;
57565;SDS011;63999;43.882;-0.310;2023-04-25T08:27:02;0.25;;;0.10;;
57565;SDS011;63999;43.882;-0.310;2023-04-25T08:29:30;2.17;;;0.20;;
57565;SDS011;63999;43.882;-0.310;2023-04-25T08:32:05;1.83;;;0.20;;
57565;SDS011;63999;43.882;-0.310;2023-04-25T08:34:31;1.33;;;0.10;;
57565;SDS011;63999;43.882;-0.310;2023-04-25T08:36:57;1.00;;;0.20;;
57565;SDS011;63999;43.882;-0.310;2023-04-25T08:39:26;0.35;;;0.10;;
57565;SDS011;63999;43.882;-0.310;2023-04-25T08:41:52;2.17;;;0.10;;
57565;SDS011;63999;43.882;-0.310;2023-04-25T08:44:21;0.45;;;0.17;;
57565;SDS011;63999;43.882;-0.310;2023-04-25T08:46:51;1.30;;;0.10;;
57565;SDS011;63999;43.882;-0.310;2023-04-25T08:49:21;0.65;;;0.10;;
57565;SDS011;63999;43.882;-0.310;2023-04-25T08:51:47;1.65;;;0.30;;
57565;SDS011;63999;43.882;-0.310;2023-04-25T08:54:18;0.32;;;0.10;;
57565;SDS011;63999;43.882;-0.310;2023-04-25T08:56:53;0.43;;;0.10;;
57565;SDS011;63999;43.882;-0.310;2023-04-25T08:59:28;0.88;;;0.10;;
57565;SDS011;63999;43.882;-0.310;2023-04-25T09:01:55;0.73;;;0.20;;
57565;SDS011;63999;43.882;-0.310;2023-04-25T09:04:21;2.38;;;0.20;;
57565;SDS011;63999;43.882;-0.310;2023-04-25T09:06:50;2.92;;;0.30;;
57565;SDS011;63999;43.882;-0.310;2023-04-25T09:09:16;0.47;;;0.20;;
57565;SDS011;63999;43.882;-0.310;2023-04-25T09:11:48;0.55;;;0.25;;
57565;SDS011;63999;43.882;-0.310;2023-04-25T09:14:18;2.22;;;0.20;;
57565;SDS011;63999;43.882;-0.310;2023-04-25T09:19:31;1.95;;;0.22;;
57565;SDS011;63999;43.882;-0.310;2023-04-25T09:22:05;0.88;;;0.10;;
57565;SDS011;63999;43.882;-0.310;2023-04-25T09:24:39;0.65;;;0.10;;
57565;SDS011;63999;43.882;-0.310;2023-04-25T09:27:17;1.20;;;0.10;;
57565;SDS011;63999;43.882;-0.310;2023-04-25T09:29:46;0.93;;;0.30;;
57565;SDS011;63999;43.882;-0.310;2023-04-25T09:32:17;1.40;;;0.17;;
57565;SDS011;63999;43.882;-0.310;2023-04-25T09:34:51;0.20;;;0.20;;
57565;SDS011;63999;43.882;-0.310;2023-04-25T09:37:21;0.10;;;0.10;;
57565;SDS011;63999;43.882;-0.310;2023-04-25T09:40:00;0.93;;;0.20;;
57565;SDS011;63999;43.882;-0.310;2023-04-25T09:42:31;0.88;;;0.20;;
57565;SDS011;63999;43.882;-0.310;2023-04-25T09:45:02;0.25;;;0.10;;
57565;SDS011;63999;43.882;-0.310;2023-04-25T09:47:32;0.65;;;0.13;;
57565;SDS011;63999;43.882;-0.310;2023-04-25T09:50:13;0.73;;;0.13;;
57565;SDS011;63999;43.882;-0.310;2023-04-25T09:52:44;0.10;;;0.10;;
57565;SDS011;63999;43.882;-0.310;2023-04-25T09:55:31;0.30;;;0.20;;
57565;SDS011;63999;43.882;-0.310;2023-04-25T09:58:04;0.40;;;0.20;;
57565;SDS011;63999;43.882;-0.310;2023-04-25T10:00:34;0.40;;;0.20;;
57565;SDS011;63999;43.882;-0.310;2023-04-25T10:03:06;0.10;;;0.10;;
57565;SDS011;63999;43.882;-0.310;2023-04-25T10:05:34;0.80;;;0.20;;
57565;SDS011;63999;43.882;-0.310;2023-04-25T10:08:05;1.02;;;0.30;;
57565;SDS011;63999;43.882;-0.310;2023-04-25T10:10:33;2.53;;;0.25;;
57565;SDS011;63999;43.882;-0.310;2023-04-25T10:13:04;1.38;;;0.22;;
57565;SDS011;63999;43.882;-0.310;2023-04-25T10:15:34;0.10;;;0.10;;
57565;SDS011;63999;43.882;-0.310;2023-04-25T10:18:07;1.13;;;0.30;;
57565;SDS011;63999;43.882;-0.310;2023-04-25T10:20:33;0.85;;;0.30;;
57565;SDS011;63999;43.882;-0.310;2023-04-25T10:23:14;0.43;;;0.20;;
57565;SDS011;63999;43.882;-0.310;2023-04-25T10:25:42;0.20;;;0.20;;
57565;SDS011;63999;43.882;-0.310;2023-04-25T10:28:08;0.32;;;0.20;;
57565;SDS011;63999;43.882;-0.310;2023-04-25T10:30:37;1.48;;;0.25;;
57565;SDS011;63999;43.882;-0.310;2023-04-25T10:33:36;0.95;;;0.28;;
57565;SDS011;63999;43.882;-0.310;2023-04-25T10:36:10;1.63;;;0.30;;
57565;SDS011;63999;43.882;-0.310;2023-04-25T10:38:42;0.90;;;0.30;;
57565;SDS011;63999;43.882;-0.310;2023-04-25T10:41:09;0.68;;;0.25;;
57565;SDS011;63999;43.882;-0.310;2023-04-25T10:46:34;0.85;;;0.20;;
57565;SDS011;63999;43.882;-0.310;2023-04-25T10:49:48;1.17;;;0.95;;
57565;SDS011;63999;43.882;-0.310;2023-04-25T10:52:17;6.15;;;2.83;;
57565;SDS011;63999;43.882;-0.310;2023-04-25T10:57:34;0.60;;;0.27;;
57565;SDS011;63999;43.882;-0.310;2023-04-25T11:00:17;2.42;;;0.52;;
57565;SDS011;63999;43.882;-0.310;2023-04-25T11:08:36;4.68;;;0.38;;
57565;SDS011;63999;43.882;-0.310;2023-04-25T11:11:16;0.32;;;0.20;;
57565;SDS011;63999;43.882;-0.310;2023-04-25T11:13:49;0.20;;;0.20;;
57565;SDS011;63999;43.882;-0.310;2023-04-25T11:16:18;0.63;;;0.20;;
57565;SDS011;63999;43.882;-0.310;2023-04-25T11:18:52;0.45;;;0.40;;
57565;SDS011;63999;43.882;-0.310;2023-04-25T11:21:18;0.30;;;0.30;;
57565;SDS011;63999;43.882;-0.310;2023-04-25T11:23:48;1.02;;;0.30;;
57565;SDS011;63999;43.882;-0.310;2023-04-25T11:26:16;1.42;;;0.60;;
57565;SDS011;63999;43.882;-0.310;2023-04-25T11:28:45;0.35;;;0.30;;
57565;SDS011;63999;43.882;-0.310;2023-04-25T11:31:19;0.30;;;0.20;;
57565;SDS011;63999;43.882;-0.310;2023-04-25T11:33:50;0.60;;;0.57;;
57565;SDS011;63999;43.882;-0.310;2023-04-25T11:36:22;1.05;;;0.57;;
57565;SDS011;63999;43.882;-0.310;2023-04-25T11:38:55;1.27;;;0.40;;
57565;SDS011;63999;43.882;-0.310;2023-04-25T11:41:25;0.50;;;0.20;;
57565;SDS011;63999;43.882;-0.310;2023-04-25T11:46:47;0.30;;;0.20;;
57565;SDS011;63999;43.882;-0.310;2023-04-25T11:49:15;2.28;;;1.27;;
57565;SDS011;63999;43.882;-0.310;2023-04-25T11:51:45;1.13;;;0.57;;
57565;SDS011;63999;43.882;-0.310;2023-04-25T11:54:13;1.08;;;0.47;;
57565;SDS011;63999;43.882;-0.310;2023-04-25T11:56:43;0.70;;;0.57;;
57565;SDS011;63999;43.882;-0.310;2023-04-25T11:59:15;0.52;;;0.38;;
57565;SDS011;63999;43.882;-0.310;2023-04-25T12:01:53;1.65;;;0.28;;
57565;SDS011;63999;43.882;-0.310;2023-04-25T12:04:22;0.57;;;0.30;;
57565;SDS011;63999;43.882;-0.310;2023-04-25T12:06:58;1.10;;;0.60;;
57565;SDS011;63999;43.882;-0.310;2023-04-25T12:09:28;0.28;;;0.20;;
57565;SDS011;63999;43.882;-0.310;2023-04-25T12:11:59;0.60;;;0.30;;
57565;SDS011;63999;43.882;-0.310;2023-04-25T12:14:32;1.02;;;0.20;;
57565;SDS011;63999;43.882;-0.310;2023-04-25T12:17:00;0.40;;;0.40;;
57565;SDS011;63999;43.882;-0.310;2023-04-25T12:19:35;0.60;;;0.25;;
57565;SDS011;63999;43.882;-0.310;2023-04-25T12:22:18;0.57;;;0.32;;
57565;SDS011;63999;43.882;-0.310;2023-04-25T12:24:46;0.88;;;0.40;;
57565;SDS011;63999;43.882;-0.310;2023-04-25T12:27:21;0.40;;;0.30;;
57565;SDS011;63999;43.882;-0.310;2023-04-25T12:29:52;0.70;;;0.20;;
57565;SDS011;63999;43.882;-0.310;2023-04-25T12:32:24;0.10;;;0.10;;
57565;SDS011;63999;43.882;-0.310;2023-04-25T12:34:58;1.42;;;0.20;;
57565;SDS011;63999;43.882;-0.310;2023-04-25T12:37:28;0.00;;;0.00;;
57565;SDS011;63999;43.882;-0.310;2023-04-25T12:39:56;0.22;;;0.10;;
57565;SDS011;63999;43.882;-0.310;2023-04-25T12:42:23;0.55;;;0.20;;
57565;SDS011;63999;43.882;-0.310;2023-04-25T12:44:57;0.65;;;0.50;;
57565;SDS011;63999;43.882;-0.310;2023-04-25T12:47:23;1.27;;;0.60;;
57565;SDS011;63999;43.882;-0.310;2023-04-25T12:49:52;0.10;;;0.10;;
57565;SDS011;63999;43.882;-0.310;2023-04-25T12:52:18;0.43;;;0.20;;
57565;SDS011;63999;43.882;-0.310;2023-04-25T12:54:47;0.15;;;0.15;;
57565;SDS011;63999;43.882;-0.310;2023-04-25T12:57:19;1.05;;;0.20;;
57565;SDS011;63999;43.882;-0.310;2023-04-25T12:59:45;0.57;;;0.40;;
57565;SDS011;63999;43.882;-0.310;2023-04-25T13:04:46;0.45;;;0.10;;
57565;SDS011;63999;43.882;-0.310;2023-04-25T13:07:19;0.30;;;0.20;;
57565;SDS011;63999;43.882;-0.310;2023-04-25T13:09:48;0.17;;;0.10;;
57565;SDS011;63999;43.882;-0.310;2023-04-25T13:12:19;0.17;;;0.17;;
57565;SDS011;63999;43.882;-0.310;2023-04-25T13:14:45;0.30;;;0.20;;
57565;SDS011;63999;43.882;-0.310;2023-04-25T13:17:16;0.30;;;0.30;;
57565;SDS011;63999;43.882;-0.310;2023-04-25T13:19:48;0.10;;;0.10;;
57565;SDS011;63999;43.882;-0.310;2023-04-25T13:22:20;3.33;;;0.28;;
57565;SDS011;63999;43.882;-0.310;2023-04-25T13:24:46;0.75;;;0.38;;
57565;SDS011;63999;43.882;-0.310;2023-04-25T13:27:12;1.98;;;0.80;;
57565;SDS011;63999;43.882;-0.310;2023-04-25T13:29:44;0.73;;;0.38;;
57565;SDS011;63999;43.882;-0.310;2023-04-25T13:32:13;1.42;;;0.13;;
57565;SDS011;63999;43.882;-0.310;2023-04-25T13:34:41;0.30;;;0.10;;
57565;SDS011;63999;43.882;-0.310;2023-04-25T13:37:07;0.73;;;0.10;;
57565;SDS011;63999;43.882;-0.310;2023-04-25T13:39:36;0.47;;;0.20;;
57565;SDS011;63999;43.882;-0.310;2023-04-25T13:42:02;2.47;;;0.20;;
57565;SDS011;63999;43.882;-0.310;2023-04-25T13:44:31;0.28;;;0.20;;
57565;SDS011;63999;43.882;-0.310;2023-04-25T13:47:03;0.43;;;0.20;;
57565;SDS011;63999;43.882;-0.310;2023-04-25T13:49:29;0.55;;;0.25;;
57565;SDS011;63999;43.882;-0.310;2023-04-25T13:52:02;0.38;;;0.25;;
57565;SDS011;63999;43.882;-0.310;2023-04-25T13:54:37;0.17;;;0.10;;
57565;SDS011;63999;43.882;-0.310;2023-04-25T13:57:06;0.20;;;0.13;;
57565;SDS011;63999;43.882;-0.310;2023-04-25T13:59:36;0.10;;;0.10;;
57565;SDS011;63999;43.882;-0.310;2023-04-25T14:02:09;0.40;;;0.10;;
57565;SDS011;63999;43.882;-0.310;2023-04-25T14:04:40;0.47;;;0.10;;
57565;SDS011;63999;43.882;-0.310;2023-04-25T14:07:13;0.30;;;0.10;;
57565;SDS011;63999;43.882;-0.310;2023-04-25T14:09:44;0.38;;;0.10;;
57565;SDS011;63999;43.882;-0.310;2023-04-25T14:12:15;1.00;;;0.10;;
57565;SDS011;63999;43.882;-0.310;2023-04-25T14:14:41;0.10;;;0.10;;
57565;SDS011;63999;43.882;-0.310;2023-04-25T14:17:13;0.63;;;0.20;;
57565;SDS011;63999;43.882;-0.310;2023-04-25T14:19:45;0.65;;;0.20;;
57565;SDS011;63999;43.882;-0.310;2023-04-25T14:22:14;0.13;;;0.13;;
57565;SDS011;63999;43.882;-0.310;2023-04-25T14:27:16;3.03;;;0.47;;
57565;SDS011;63999;43.882;-0.310;2023-04-25T14:29:44;0.20;;;0.20;;
57565;SDS011;63999;43.882;-0.310;2023-04-25T14:32:16;0.45;;;0.25;;
57565;SDS011;63999;43.882;-0.310;2023-04-25T14:34:45;1.45;;;0.20;;
57565;SDS011;63999;43.882;-0.310;2023-04-25T14:37:11;0.55;;;0.20;;
57565;SDS011;63999;43.882;-0.310;2023-04-25T14:39:40;0.93;;;0.20;;
57565;SDS011;63999;43.882;-0.310;2023-04-25T14:42:08;0.90;;;0.22;;
57565;SDS011;63999;43.882;-0.310;2023-04-25T14:44:36;0.43;;;0.20;;
57565;SDS011;63999;43.882;-0.310;2023-04-25T14:47:07;0.17;;;0.17;;
57565;SDS011;63999;43.882;-0.310;2023-04-25T14:49:33;0.20;;;0.20;;
57565;SDS011;63999;43.882;-0.310;2023-04-25T14:52:02;0.20;;;0.20;;
57565;SDS011;63999;43.882;-0.310;2023-04-25T14:54:31;0.28;;;0.20;;
57565;SDS011;63999;43.882;-0.310;2023-04-25T14:57:00;0.13;;;0.13;;
57565;SDS011;63999;43.882;-0.310;2023-04-25T14:59:29;0.10;;;0.10;;
57565;SDS011;63999;43.882;-0.310;2023-04-25T15:01:57;0.20;;;0.20;;
57565;SDS011;63999;43.882;-0.310;2023-04-25T15:04:27;0.20;;;0.10;;
57565;SDS011;63999;43.882;-0.310;2023-04-25T15:06:56;0.93;;;0.20;;